Bookmark and Share
Track history (hours):
 

Aegean Viii

Last reported at 2014-Apr-17 14:22 UTC. Time now 2014-Apr-17 21:59 UTC.
Position N 38°02' E 023°32'.

Length 75 m; draft 4.2 m.

Type: Tanker. MMSI: 240732000.

NotesDate/timePositionNaut miles runAvg speedWind from/ knotsBaromVisibWave heightAir tempDewpointWater temp
2014-Apr-17 14:22N 38°02' E 023°32'0 0.0
2014-Apr-17 13:21N 38°02' E 023°32'6 7.2
2014-Apr-17 12:34N 37°57' E 023°35'2 2.3
2014-Apr-17 11:33N 37°55' E 023°34'0 0.0
2014-Apr-17 10:33N 37°55' E 023°34'4 3.7
2014-Apr-17 09:33N 37°56' E 023°38'0 0.0
2014-Apr-17 08:34N 37°56' E 023°38'0 0.0
2014-Apr-17 07:33N 37°56' E 023°38'0 0.0
2014-Apr-17 06:33N 37°56' E 023°38'1 0.6
2014-Apr-17 05:34N 37°56' E 023°37'6 5.3
2014-Apr-17 04:22N 38°01' E 023°32'1 1.1
2014-Apr-17 03:26N 38°02' E 023°32'0 0.0
2014-Apr-16 18:15N 38°02' E 023°32'0 0.0
2014-Apr-16 17:32N 38°02' E 023°32'0 0.0
2014-Apr-16 16:24N 38°02' E 023°32'0 0.0
2014-Apr-16 15:32N 38°02' E 023°32'0 0.0
2014-Apr-16 14:30N 38°02' E 023°32'0 0.0
2014-Apr-16 13:21N 38°02' E 023°32'0 0.0
2014-Apr-16 12:27N 38°02' E 023°32'0 0.0
2014-Apr-16 11:33N 38°02' E 023°32'0 0.0
2014-Apr-16 04:23N 38°02' E 023°32'6 7.0
2014-Apr-16 03:33N 37°57' E 023°35'6 5.8
2014-Apr-16 02:29N 37°51' E 023°32'0 0.2
2014-Apr-16 01:33N 37°51' E 023°32'0 0.1
2014-Apr-16 00:33N 37°51' E 023°32'0 0.1
2014-Apr-15 23:33N 37°51' E 023°32'1 0.9
2014-Apr-15 22:32N 37°52' E 023°33'3 3.3
2014-Apr-15 21:33N 37°55' E 023°34'2 2.4
2014-Apr-15 20:33N 37°57' E 023°35'0 0.1
2014-Apr-15 19:33N 37°57' E 023°35'0 0.0
2014-Apr-15 18:33N 37°57' E 023°35'0 0.0
2014-Apr-15 17:33N 37°57' E 023°35'2 1.7
2014-Apr-15 16:33N 37°58' E 023°33'4 2.0
2014-Apr-15 14:19N 38°02' E 023°36'0 0.0
2014-Apr-15 12:31N 38°02' E 023°36'0 0.0
2014-Apr-15 09:31N 38°02' E 023°36'0 0.0
2014-Apr-15 08:33N 38°02' E 023°36'3 0.1
2014-Apr-14 08:32N 38°02' E 023°32'0 0.0
2014-Apr-14 07:32N 38°02' E 023°32'0 0.0
2014-Apr-14 06:32N 38°02' E 023°32'0 0.0
2014-Apr-14 05:30N 38°02' E 023°32'0 0.0
2014-Apr-13 08:04N 38°02' E 023°32'5 8.8
2014-Apr-13 07:33N 37°58' E 023°33'2 2.5
2014-Apr-13 06:33N 37°55' E 023°33'0 0.0
2014-Apr-13 05:33N 37°55' E 023°33'7 4.9
2014-Apr-13 04:05N 38°02' E 023°32'0 0.0
2014-Apr-13 03:29N 38°02' E 023°32'0 0.0
2014-Apr-13 02:26N 38°02' E 023°32'0 0.0
2014-Apr-13 01:33N 38°02' E 023°32'0 0.0
2014-Apr-13 00:31N 38°02' E 023°32'0 0.0
2014-Apr-12 22:24N 38°02' E 023°32'0 0.0
2014-Apr-12 14:20N 38°02' E 023°32'4 5.4
2014-Apr-12 13:33N 37°58' E 023°33'3 2.9
2014-Apr-12 12:34N 37°58' E 023°36'0 0.3
2014-Apr-12 11:34N 37°57' E 023°36'1 1.3
2014-Apr-12 10:34N 37°57' E 023°34'5 4.9
2014-Apr-12 09:28N 38°02' E 023°32'0 0.0
2014-Apr-11 20:25N 38°02' E 023°32'5 6.1
2014-Apr-11 19:32N 37°60' E 023°26'7 7.2
2014-Apr-11 18:32N 37°53' E 023°25'6 6.3
2014-Apr-11 17:33N 37°52' E 023°33'0 0.3
2014-Apr-11 16:33N 37°52' E 023°32'0 0.2
2014-Apr-11 15:31N 37°52' E 023°32'6 5.8
2014-Apr-11 14:33N 37°57' E 023°35'0 0.0
2014-Apr-11 13:33N 37°57' E 023°35'0 0.0
2014-Apr-11 12:32N 37°57' E 023°35'5 2.4
2014-Apr-11 10:22N 38°02' E 023°32'0 0.0
2014-Apr-11 09:12N 38°02' E 023°32'2 0.7
2014-Apr-11 06:29N 38°00' E 023°33'2 0.6
2014-Apr-11 03:22N 38°02' E 023°32'0 0.0
2014-Apr-11 02:22N 38°02' E 023°32'0 0.0
2014-Apr-11 01:24N 38°02' E 023°32'0 0.0
2014-Apr-10 17:17N 38°02' E 023°32'5 0.7
2014-Apr-10 09:31N 37°57' E 023°35'1 1.4
2014-Apr-10 08:33N 37°57' E 023°36'0 0.1
2014-Apr-10 07:33N 37°58' E 023°36'3 2.6
2014-Apr-10 06:33N 37°56' E 023°34'6 2.9
2014-Apr-10 04:20N 38°01' E 023°31'1 1.3
2014-Apr-10 03:21N 38°02' E 023°32'0 0.0
2014-Apr-09 12:33N 38°02' E 023°32'5 5.1
2014-Apr-09 11:31N 37°57' E 023°34'6 5.5
2014-Apr-09 10:32N 37°52' E 023°32'0 0.0
2014-Apr-09 09:33N 37°52' E 023°32'1 0.6
2014-Apr-09 08:33N 37°52' E 023°33'5 5.1
2014-Apr-09 07:33N 37°57' E 023°33'5 4.8
2014-Apr-09 06:31N 38°02' E 023°32'0 0.0
2014-Apr-09 05:33N 38°02' E 023°32'0 0.0
2014-Apr-08 11:27N 38°02' E 023°32'1 0.2
2014-Apr-08 06:24N 38°02' E 023°31'0 0.0
2014-Apr-08 05:07N 38°02' E 023°31'1 1.0
2014-Apr-08 04:04N 38°02' E 023°32'  

Dump ship's entire track history

sailing weather and tide predictions

Aegean Viii — SXKO — position and weather